Time;durP1;ratioP1;P1;durP2;ratioP2;P2;SDS_P1;SDS_P2;PMS_P1;PMS_P2;Temp;Humidity;BMP_temperature;BMP_pressure;BME280_temperature;BME280_humidity;BME280_pressure;Samples;Min_cycle;Max_cycle;Signal;HPM_P1;HPM_P2
2023/06/23 00:01:45;;;;;;;9.38;8.32;;;17.50;91.60;;;;;;4975303;28;20182;-87
2023/06/23 00:04:11;;;;;;;11.57;8.45;;;17.50;91.90;;;;;;4975366;28;20202;-86
2023/06/23 00:06:37;;;;;;;11.05;8.20;;;17.50;92.10;;;;;;4976129;28;20217;-86
2023/06/23 00:09:13;;;;;;;9.77;8.48;;;17.40;92.10;;;;;;4974839;28;20190;-86
2023/06/23 00:11:42;;;;;;;15.25;9.05;;;17.30;92.20;;;;;;4975823;28;20171;-87
2023/06/23 00:14:08;;;;;;;8.95;8.20;;;17.20;92.40;;;;;;4975012;28;20225;-86
2023/06/23 00:16:36;;;;;;;11.90;9.60;;;17.20;92.50;;;;;;4974807;28;20721;-86
2023/06/23 00:19:02;;;;;;;10.60;9.00;;;17.20;92.60;;;;;;4974699;28;20185;-86
2023/06/23 00:21:27;;;;;;;12.85;8.30;;;17.20;92.70;;;;;;4974569;28;20616;-86
2023/06/23 00:23:54;;;;;;;11.73;9.07;;;17.10;92.80;;;;;;4974610;28;20294;-86
2023/06/23 00:26:20;;;;;;;10.13;9.13;;;17.10;92.80;;;;;;4975415;28;20262;-86
2023/06/23 00:28:46;;;;;;;10.65;8.98;;;17.00;92.90;;;;;;4974771;28;20273;-86
2023/06/23 00:31:11;;;;;;;11.93;9.43;;;17.00;93.00;;;;;;4974536;28;20551;-86
2023/06/23 00:33:37;;;;;;;9.35;8.30;;;17.00;92.90;;;;;;4975347;28;20290;-86
2023/06/23 00:36:04;;;;;;;12.18;8.70;;;16.90;92.90;;;;;;4974544;28;20177;-87
2023/06/23 00:38:29;;;;;;;10.00;8.27;;;16.90;92.90;;;;;;4975149;28;20178;-86
2023/06/23 00:40:56;;;;;;;10.63;9.55;;;17.00;93.00;;;;;;4975548;28;20685;-86
2023/06/23 00:43:21;;;;;;;10.50;9.50;;;17.00;93.00;;;;;;4974566;28;20294;-87
2023/06/23 00:45:48;;;;;;;10.73;9.63;;;16.90;93.10;;;;;;4975494;28;20240;-87
2023/06/23 00:48:14;;;;;;;13.05;9.82;;;17.00;93.10;;;;;;4974160;28;20276;-87
2023/06/23 00:50:41;;;;;;;13.95;10.52;;;16.90;93.20;;;;;;4974301;28;20179;-87
2023/06/23 00:53:07;;;;;;;11.25;9.88;;;17.00;93.30;;;;;;4973892;28;20226;-86
2023/06/23 00:55:37;;;;;;;16.25;10.30;;;17.00;93.40;;;;;;4974156;28;20183;-87
2023/06/23 00:58:02;;;;;;;12.90;10.02;;;17.00;93.40;;;;;;4974015;28;20170;-87
2023/06/23 01:00:29;;;;;;;16.10;10.18;;;17.10;93.60;;;;;;4975301;28;20179;-87
2023/06/23 01:02:59;;;;;;;11.25;10.25;;;17.10;93.60;;;;;;4974064;28;20210;-87
2023/06/23 01:05:36;;;;;;;11.75;10.30;;;17.20;93.70;;;;;;4974208;28;20175;-87
2023/06/23 01:08:34;;;;;;;15.70;10.23;;;17.20;93.60;;;;;;4973851;28;20198;-86
2023/06/23 01:11:15;;;;;;;12.88;9.75;;;17.20;93.60;;;;;;4973920;28;20159;-86
2023/06/23 01:14:23;;;;;;;12.30;8.98;;;17.20;93.60;;;;;;4974298;28;20190;-86
2023/06/23 01:17:13;;;;;;;10.70;9.57;;;17.10;93.70;;;;;;4878095;29;20271;-86
2023/06/23 01:19:59;;;;;;;10.68;9.48;;;17.20;93.70;;;;;;4877729;29;20213;-86
2023/06/23 01:22:33;;;;;;;14.57;9.57;;;17.30;93.80;;;;;;4952521;28;20211;-86
2023/06/23 01:25:13;;;;;;;12.13;9.32;;;17.30;93.80;;;;;;4974855;28;20164;-86
2023/06/23 01:28:11;;;;;;;12.50;9.98;;;17.30;93.70;;;;;;4973542;28;20198;-86
2023/06/23 01:30:39;;;;;;;12.32;10.80;;;17.20;93.70;;;;;;4933651;28;20565;-86
2023/06/23 01:33:15;;;;;;;12.68;9.55;;;17.30;93.80;;;;;;4973354;28;20194;-86
2023/06/23 01:35:44;;;;;;;11.88;9.93;;;17.30;93.70;;;;;;4974768;28;20178;-86
2023/06/23 01:38:36;;;;;;;11.00;9.90;;;17.30;93.70;;;;;;4972555;28;20175;-86
2023/06/23 01:41:12;;;;;;;11.60;10.50;;;17.20;93.60;;;;;;4973449;28;20229;-86
2023/06/23 01:43:41;;;;;;;13.00;9.80;;;17.20;93.50;;;;;;4974438;28;20206;-86
2023/06/23 01:46:13;;;;;;;11.43;9.55;;;17.20;93.40;;;;;;4973147;28;20190;-86
2023/06/23 01:48:42;;;;;;;14.27;9.93;;;17.20;93.30;;;;;;4974428;28;20248;-86
2023/06/23 01:51:09;;;;;;;14.00;10.38;;;17.20;93.30;;;;;;4973343;28;20179;-86
2023/06/23 01:53:37;;;;;;;11.80;9.55;;;17.30;93.30;;;;;;4973127;28;20214;-86
2023/06/23 01:56:05;;;;;;;11.20;9.77;;;17.20;93.20;;;;;;4973338;28;20183;-86
2023/06/23 01:58:33;;;;;;;11.90;10.68;;;17.20;93.00;;;;;;4973063;28;20190;-86
2023/06/23 02:01:00;;;;;;;11.98;10.15;;;17.20;93.00;;;;;;4973253;28;20179;-87
2023/06/23 02:03:28;;;;;;;13.15;10.70;;;17.20;92.90;;;;;;4974612;28;20623;-86
2023/06/23 02:05:56;;;;;;;11.93;10.18;;;17.20;92.80;;;;;;4973145;28;20265;-86
2023/06/23 02:08:25;;;;;;;11.52;10.02;;;17.20;92.70;;;;;;4974274;28;20607;-86
2023/06/23 02:10:53;;;;;;;13.48;10.52;;;17.20;92.50;;;;;;4974275;28;20249;-86
2023/06/23 02:13:20;;;;;;;12.15;10.77;;;17.10;92.30;;;;;;4974227;28;20190;-86
2023/06/23 02:15:48;;;;;;;12.73;11.18;;;17.10;92.20;;;;;;4973031;28;20178;-86
2023/06/23 02:18:15;;;;;;;14.63;12.38;;;17.20;92.20;;;;;;4974204;28;20250;-86
2023/06/23 02:20:42;;;;;;;19.45;11.50;;;17.20;92.10;;;;;;4972876;28;20204;-86
2023/06/23 02:23:09;;;;;;;15.85;11.18;;;17.20;92.20;;;;;;4973029;28;20209;-86
2023/06/23 02:25:35;;;;;;;13.95;10.82;;;17.20;92.10;;;;;;4973074;28;20654;-86
2023/06/23 02:28:01;;;;;;;18.13;11.30;;;17.20;92.00;;;;;;4974386;28;20201;-86
2023/06/23 02:30:29;;;;;;;14.25;11.93;;;17.20;91.90;;;;;;4974629;28;20635;-86
2023/06/23 02:32:56;;;;;;;12.00;10.85;;;17.20;91.80;;;;;;4974167;28;20195;-86
2023/06/23 02:35:22;;;;;;;13.50;11.88;;;17.10;91.80;;;;;;4974219;28;20170;-86
2023/06/23 02:37:58;;;;;;;14.98;10.75;;;17.00;91.90;;;;;;4974168;28;20270;-86
2023/06/23 02:40:25;;;;;;;14.38;12.13;;;17.00;92.00;;;;;;4973472;28;20172;-86
2023/06/23 02:43:13;;;;;;;14.82;11.88;;;17.00;92.00;;;;;;4974213;28;20198;-86
2023/06/23 02:45:42;;;;;;;13.68;12.18;;;16.90;92.20;;;;;;4972712;28;20163;-86
2023/06/23 02:48:15;;;;;;;14.80;12.20;;;16.90;92.30;;;;;;4973861;28;20630;-86
2023/06/23 02:50:43;;;;;;;18.75;12.40;;;16.90;92.40;;;;;;4977027;28;20613;-87
2023/06/23 02:53:11;;;;;;;21.45;11.85;;;16.80;92.60;;;;;;4977422;28;20222;-86
2023/06/23 02:55:40;;;;;;;24.60;12.35;;;16.80;92.80;;;;;;4976317;28;20549;-86
2023/06/23 02:58:09;;;;;;;24.15;13.10;;;16.80;92.90;;;;;;4977455;28;20175;-86
2023/06/23 03:00:37;;;;;;;21.40;12.05;;;16.80;93.00;;;;;;4976328;28;20175;-87
2023/06/23 03:03:07;;;;;;;15.57;11.90;;;16.80;93.10;;;;;;4977386;28;20256;-86
2023/06/23 03:05:32;;;;;;;18.20;12.55;;;16.80;93.20;;;;;;4976330;28;20232;-86
2023/06/23 03:08:00;;;;;;;16.13;11.48;;;16.80;93.20;;;;;;4976066;28;20214;-86
2023/06/23 03:10:26;;;;;;;13.77;12.35;;;16.80;93.40;;;;;;4976009;28;20194;-87
2023/06/23 03:12:52;;;;;;;14.95;11.40;;;16.90;93.40;;;;;;4977467;28;20202;-86
2023/06/23 03:15:18;;;;;;;20.10;11.30;;;16.90;93.40;;;;;;4977166;28;20653;-86
2023/06/23 03:17:45;;;;;;;19.30;12.57;;;16.90;93.40;;;;;;4975991;28;20186;-86
2023/06/23 03:20:36;;;;;;;13.43;10.98;;;16.90;93.40;;;;;;4975917;28;20178;-86
2023/06/23 03:23:12;;;;;;;31.27;11.82;;;16.90;93.40;;;;;;4975929;28;20234;-86
2023/06/23 03:25:40;;;;;;;13.88;11.68;;;16.90;93.30;;;;;;4977216;28;20630;-86
2023/06/23 03:28:09;;;;;;;16.30;11.98;;;16.80;93.20;;;;;;4976864;28;20249;-86
2023/06/23 03:30:41;;;;;;;13.15;11.73;;;16.80;93.10;;;;;;4975731;28;20206;-87
2023/06/23 03:33:14;;;;;;;14.70;11.13;;;16.80;93.10;;;;;;4977112;28;20222;-86
2023/06/23 03:35:44;;;;;;;19.55;11.55;;;16.80;93.10;;;;;;4975695;28;20170;-86
2023/06/23 03:38:22;;;;;;;16.70;11.80;;;16.90;93.10;;;;;;4976817;28;20206;-87
2023/06/23 03:40:54;;;;;;;13.68;10.75;;;16.90;93.20;;;;;;4976806;28;20171;-87
2023/06/23 03:44:01;;;;;;;16.70;11.70;;;16.90;93.20;;;;;;4976220;28;20200;-87
2023/06/23 03:46:40;;;;;;;16.83;11.60;;;16.90;93.30;;;;;;4898415;29;20181;-86
2023/06/23 03:49:08;;;;;;;14.93;11.05;;;16.90;93.30;;;;;;4964030;28;20678;-86
2023/06/23 03:51:36;;;;;;;21.95;11.77;;;16.90;93.40;;;;;;4976584;28;20202;-87
2023/06/23 03:54:04;;;;;;;20.27;11.75;;;16.80;93.40;;;;;;4975163;28;20293;-87
2023/06/23 03:56:33;;;;;;;20.48;12.15;;;16.90;93.50;;;;;;4975175;28;20233;-86
2023/06/23 03:59:02;;;;;;;19.13;11.05;;;16.80;93.40;;;;;;4975133;28;20210;-87
2023/06/23 04:01:29;;;;;;;17.92;11.82;;;16.90;93.50;;;;;;4975458;28;20205;-87
2023/06/23 04:03:57;;;;;;;15.18;12.02;;;16.90;93.50;;;;;;4975113;28;20190;-87
2023/06/23 04:06:25;;;;;;;19.85;12.85;;;16.90;93.60;;;;;;4976261;28;20203;-87
2023/06/23 04:08:53;;;;;;;17.40;12.30;;;17.00;93.70;;;;;;4976210;28;20171;-87
2023/06/23 04:11:21;;;;;;;20.65;13.15;;;17.00;93.70;;;;;;4975065;28;20174;-87
2023/06/23 04:13:49;;;;;;;12.60;11.30;;;17.00;93.70;;;;;;4974726;28;20198;-87
2023/06/23 04:16:16;;;;;;;22.10;12.40;;;17.00;93.70;;;;;;4975423;28;20513;-87
2023/06/23 04:18:44;;;;;;;14.15;12.15;;;17.00;93.60;;;;;;4974796;28;20556;-87
2023/06/23 04:21:11;;;;;;;15.85;12.82;;;17.00;93.60;;;;;;4975590;28;20175;-87
2023/06/23 04:23:39;;;;;;;19.45;12.63;;;17.00;93.60;;;;;;4974737;28;20705;-87
2023/06/23 04:26:08;;;;;;;16.48;12.85;;;17.10;93.50;;;;;;4974719;28;20190;-87
2023/06/23 04:28:35;;;;;;;19.30;12.45;;;17.10;93.60;;;;;;4975796;28;20198;-87
2023/06/23 04:31:06;;;;;;;16.10;13.02;;;17.20;93.60;;;;;;4975804;28;20163;-87
2023/06/23 04:33:31;;;;;;;21.98;13.38;;;17.20;93.60;;;;;;4974503;28;20206;-87
2023/06/23 04:36:04;;;;;;;13.60;12.07;;;17.20;93.60;;;;;;4975342;28;20192;-87
2023/06/23 04:38:34;;;;;;;16.45;12.20;;;17.20;93.70;;;;;;4975818;28;20178;-87
2023/06/23 04:41:07;;;;;;;22.60;12.80;;;17.20;93.70;;;;;;4975933;28;20183;-87
2023/06/23 04:43:37;;;;;;;14.88;13.05;;;17.20;93.70;;;;;;4975662;28;20273;-87
2023/06/23 04:46:27;;;;;;;13.88;12.50;;;17.20;93.80;;;;;;4975874;28;20251;-87
2023/06/23 04:49:03;;;;;;;16.25;12.07;;;17.20;93.80;;;;;;4975446;28;20169;-87
2023/06/23 04:51:34;;;;;;;12.85;11.23;;;17.20;93.80;;;;;;4974237;28;20232;-87
2023/06/23 04:54:07;;;;;;;15.77;12.77;;;17.20;93.80;;;;;;4975312;28;20211;-87
2023/06/23 04:56:36;;;;;;;17.75;11.90;;;17.20;93.90;;;;;;4974221;28;20162;-87
2023/06/23 04:59:05;;;;;;;19.15;11.63;;;17.20;93.90;;;;;;4974380;28;20179;-87
2023/06/23 05:01:33;;;;;;;14.13;11.50;;;17.20;94.00;;;;;;4974028;28;20174;-87
2023/06/23 05:04:01;;;;;;;15.98;11.10;;;17.30;94.00;;;;;;4973974;28;20310;-87
2023/06/23 05:06:28;;;;;;;11.85;10.75;;;17.30;94.00;;;;;;4974517;28;20175;-87
2023/06/23 05:08:56;;;;;;;12.40;11.20;;;17.30;94.00;;;;;;4973943;28;20738;-87
2023/06/23 05:11:23;;;;;;;19.88;12.32;;;17.30;94.00;;;;;;4973781;28;20190;-86
2023/06/23 05:13:50;;;;;;;14.75;11.05;;;17.40;94.10;;;;;;4974919;28;20195;-87
2023/06/23 05:16:17;;;;;;;17.38;11.77;;;17.40;94.10;;;;;;4974949;28;20244;-86
2023/06/23 05:18:44;;;;;;;13.45;11.68;;;17.30;94.00;;;;;;4973789;28;20182;-87
2023/06/23 05:21:12;;;;;;;16.15;11.40;;;17.30;94.00;;;;;;4973889;28;20182;-87
2023/06/23 05:23:40;;;;;;;14.05;11.05;;;17.40;94.00;;;;;;4974916;28;20253;-87
2023/06/23 05:26:08;;;;;;;14.43;11.15;;;17.30;93.90;;;;;;4973692;28;20579;-87
2023/06/23 05:28:36;;;;;;;17.55;11.63;;;17.40;93.90;;;;;;4973447;28;20296;-87
2023/06/23 05:31:03;;;;;;;12.63;11.43;;;17.30;93.90;;;;;;4975122;28;20194;-87
2023/06/23 05:33:31;;;;;;;15.02;11.48;;;17.30;93.80;;;;;;4973459;28;20670;-86
2023/06/23 05:35:57;;;;;;;17.25;12.45;;;17.30;93.80;;;;;;4974772;28;20203;-87
2023/06/23 05:38:24;;;;;;;16.85;11.30;;;17.40;93.80;;;;;;4973491;28;20265;-87
2023/06/23 05:40:50;;;;;;;16.00;12.05;;;17.40;93.70;;;;;;4973537;28;20557;-86
2023/06/23 05:43:15;;;;;;;17.40;12.65;;;17.40;93.70;;;;;;4973549;28;20205;-86
2023/06/23 05:45:41;;;;;;;15.23;11.48;;;17.50;93.60;;;;;;4973493;28;20189;-86
2023/06/23 05:48:28;;;;;;;14.30;12.55;;;17.50;93.50;;;;;;4973656;28;20214;-86
2023/06/23 05:50:55;;;;;;;16.27;12.13;;;17.50;93.50;;;;;;4973338;28;20173;-87
2023/06/23 05:53:24;;;;;;;16.25;12.38;;;17.60;93.50;;;;;;4972999;28;20207;-87
2023/06/23 05:56:08;;;;;;;16.65;12.82;;;17.50;93.40;;;;;;4973242;28;20178;-87
2023/06/23 05:58:37;;;;;;;15.43;12.95;;;17.70;93.50;;;;;;4974490;28;20198;-87
2023/06/23 06:01:08;;;;;;;14.63;13.13;;;17.70;93.40;;;;;;4973214;28;20183;-87
2023/06/23 06:03:38;;;;;;;21.17;13.52;;;17.80;93.50;;;;;;4974336;28;20621;-87
2023/06/23 06:06:06;;;;;;;17.63;13.60;;;17.90;93.50;;;;;;4973281;28;20221;-87
2023/06/23 06:08:33;;;;;;;17.75;13.95;;;17.80;93.30;;;;;;4974448;28;20248;-87
2023/06/23 06:11:01;;;;;;;19.25;14.27;;;17.90;93.40;;;;;;4974390;28;20599;-87
2023/06/23 06:13:30;;;;;;;15.68;14.00;;;17.90;93.40;;;;;;4973104;28;20199;-87
2023/06/23 06:15:56;;;;;;;16.63;14.48;;;18.00;93.50;;;;;;4974004;28;20545;-87
2023/06/23 06:18:24;;;;;;;19.88;14.55;;;18.00;93.50;;;;;;4973391;28;20238;-87
2023/06/23 06:20:51;;;;;;;19.80;14.77;;;18.10;93.50;;;;;;4974293;28;20306;-87
2023/06/23 06:23:19;;;;;;;17.45;15.05;;;18.10;93.50;;;;;;4974113;28;20198;-87
2023/06/23 06:25:49;;;;;;;17.02;15.27;;;18.20;93.60;;;;;;4977233;28;20186;-87
2023/06/23 06:28:16;;;;;;;17.75;15.57;;;18.20;93.70;;;;;;4976887;28;20354;-87
2023/06/23 06:30:42;;;;;;;17.58;15.90;;;18.30;93.60;;;;;;4977292;28;20175;-87
2023/06/23 06:33:11;;;;;;;21.67;16.10;;;18.30;93.70;;;;;;4976699;28;20202;-87
2023/06/23 06:35:39;;;;;;;17.33;15.68;;;18.40;93.70;;;;;;4976811;28;20166;-87
2023/06/23 06:38:06;;;;;;;19.23;16.58;;;18.40;93.70;;;;;;4976788;28;20631;-87
2023/06/23 06:40:34;;;;;;;18.83;16.33;;;18.40;93.80;;;;;;4977909;28;20253;-87
2023/06/23 06:42:59;;;;;;;20.15;16.75;;;18.50;93.80;;;;;;4976718;28;20210;-87
2023/06/23 06:45:25;;;;;;;20.52;16.90;;;18.50;93.80;;;;;;4976871;28;20183;-87
2023/06/23 06:47:53;;;;;;;19.77;16.42;;;18.50;93.80;;;;;;4977399;28;20296;-87
2023/06/23 06:50:20;;;;;;;19.30;17.23;;;18.60;93.90;;;;;;4976609;28;20178;-87
2023/06/23 06:52:47;;;;;;;18.70;16.67;;;18.60;93.90;;;;;;4976278;28;20217;-88
2023/06/23 06:55:18;;;;;;;21.88;17.65;;;18.60;93.90;;;;;;4976490;28;20597;-87
2023/06/23 06:57:45;;;;;;;19.25;17.20;;;18.50;93.90;;;;;;4977652;28;20167;-87
2023/06/23 07:00:11;;;;;;;22.25;17.55;;;18.60;93.90;;;;;;4976689;28;20638;-87
2023/06/23 07:02:39;;;;;;;21.67;16.90;;;18.50;93.90;;;;;;4976204;28;20202;-87
2023/06/23 07:05:05;;;;;;;23.40;16.20;;;18.60;93.90;;;;;;4977498;28;20175;-87
2023/06/23 07:07:31;;;;;;;19.23;17.25;;;18.60;93.80;;;;;;4976251;28;20212;-87
2023/06/23 07:09:56;;;;;;;20.15;18.05;;;18.60;93.90;;;;;;4976157;28;20269;-87
2023/06/23 07:12:23;;;;;;;18.45;16.65;;;18.60;93.80;;;;;;4977187;28;20191;-87
2023/06/23 07:14:49;;;;;;;19.45;17.33;;;18.60;93.70;;;;;;4976265;28;20178;-87
2023/06/23 07:17:15;;;;;;;19.02;17.10;;;18.70;93.70;;;;;;4976552;28;20182;-87
2023/06/23 07:19:40;;;;;;;17.88;16.20;;;18.70;93.70;;;;;;4976132;28;20537;-87
2023/06/23 07:22:06;;;;;;;22.38;17.40;;;18.70;93.60;;;;;;4975886;28;20599;-87
2023/06/23 07:24:32;;;;;;;17.83;16.02;;;18.70;93.60;;;;;;4977137;28;20178;-87
2023/06/23 07:26:57;;;;;;;18.67;16.63;;;18.70;93.60;;;;;;4976486;28;20203;-87
2023/06/23 07:29:23;;;;;;;19.85;16.90;;;18.70;93.60;;;;;;4977015;28;20182;-87
2023/06/23 07:31:48;;;;;;;18.67;16.85;;;18.80;93.60;;;;;;4975649;28;20179;-87
2023/06/23 07:34:14;;;;;;;18.60;16.70;;;18.80;93.50;;;;;;4976831;28;20671;-87
2023/06/23 07:36:40;;;;;;;19.10;17.05;;;18.80;93.50;;;;;;4977098;28;20539;-87
2023/06/23 07:39:05;;;;;;;19.33;17.33;;;18.80;93.50;;;;;;4975631;28;20171;-87
2023/06/23 07:41:33;;;;;;;20.63;16.67;;;18.80;93.50;;;;;;4976607;28;20222;-87
2023/06/23 07:43:59;;;;;;;21.20;16.83;;;18.80;93.50;;;;;;4975412;28;20202;-87
2023/06/23 07:46:25;;;;;;;20.65;16.58;;;18.90;93.50;;;;;;4975376;28;20178;-87
2023/06/23 07:48:50;;;;;;;19.50;17.40;;;18.80;93.50;;;;;;4976376;28;20653;-87
2023/06/23 07:51:16;;;;;;;22.17;16.98;;;18.80;93.40;;;;;;4975363;28;20314;-86
2023/06/23 07:53:42;;;;;;;23.88;17.05;;;18.80;93.40;;;;;;4976364;28;20214;-87
2023/06/23 07:56:11;;;;;;;19.58;17.67;;;18.90;93.40;;;;;;4975218;28;20182;-87
2023/06/23 07:58:36;;;;;;;19.45;17.45;;;18.90;93.50;;;;;;4975271;28;20744;-86
2023/06/23 08:01:02;;;;;;;21.13;17.02;;;19.00;93.50;;;;;;4976367;28;20210;-87
2023/06/23 08:03:28;;;;;;;18.10;16.35;;;18.90;93.50;;;;;;4976366;28;20198;-87
2023/06/23 08:05:53;;;;;;;23.20;17.52;;;19.00;93.50;;;;;;4976221;28;20183;-87
2023/06/23 08:08:19;;;;;;;21.25;17.98;;;19.00;93.60;;;;;;4974962;28;20199;-87
2023/06/23 08:10:44;;;;;;;19.23;17.35;;;19.00;93.60;;;;;;4975000;28;20198;-87
2023/06/23 08:13:10;;;;;;;22.05;16.55;;;19.00;93.60;;;;;;4976123;28;20190;-86
2023/06/23 08:15:35;;;;;;;21.10;16.92;;;19.10;93.70;;;;;;4976415;28;20186;-87
2023/06/23 08:18:01;;;;;;;23.17;18.58;;;19.20;93.70;;;;;;4976170;28;20210;-87
2023/06/23 08:20:26;;;;;;;19.40;17.45;;;19.20;93.70;;;;;;4975093;28;20174;-87
2023/06/23 08:22:52;;;;;;;23.55;17.45;;;19.20;93.70;;;;;;4974718;28;20249;-87
2023/06/23 08:25:17;;;;;;;20.55;17.08;;;19.20;93.70;;;;;;4975942;28;20786;-86
2023/06/23 08:27:43;;;;;;;27.23;19.60;;;19.30;93.70;;;;;;4975828;28;20202;-87
2023/06/23 08:30:09;;;;;;;19.27;17.30;;;19.30;93.70;;;;;;4975897;28;20178;-87
2023/06/23 08:32:34;;;;;;;24.52;17.85;;;19.40;93.70;;;;;;4974538;28;20226;-87
2023/06/23 08:35:00;;;;;;;24.10;18.38;;;19.40;93.60;;;;;;4974682;28;20179;-87
2023/06/23 08:37:25;;;;;;;21.63;18.33;;;19.40;93.60;;;;;;4974620;28;20175;-87
2023/06/23 08:39:51;;;;;;;19.85;16.90;;;19.50;93.60;;;;;;4975713;28;20178;-87
2023/06/23 08:42:17;;;;;;;19.95;17.90;;;19.50;93.40;;;;;;4974445;28;20185;-87
2023/06/23 08:44:47;;;;;;;19.75;17.65;;;19.50;93.30;;;;;;4974466;28;20186;-87
2023/06/23 08:47:15;;;;;;;17.45;15.73;;;19.60;93.30;;;;;;4973810;28;20569;-87
2023/06/23 08:49:42;;;;;;;17.10;15.38;;;19.40;92.80;;;;;;4975756;28;20175;-86
2023/06/23 08:52:09;;;;;;;17.20;15.13;;;19.50;92.60;;;;;;4975348;28;20300;-87
2023/06/23 08:54:38;;;;;;;18.88;15.20;;;19.40;92.30;;;;;;4975036;28;20178;-87
2023/06/23 08:57:04;;;;;;;16.38;14.63;;;19.50;92.30;;;;;;4974669;28;20585;-87
2023/06/23 08:59:30;;;;;;;17.15;15.38;;;19.60;92.10;;;;;;4974102;28;20179;-87
2023/06/23 09:01:56;;;;;;;19.00;17.02;;;19.60;91.90;;;;;;4975568;28;20197;-87
2023/06/23 09:04:21;;;;;;;19.42;16.50;;;19.60;91.70;;;;;;4973916;28;20195;-87
2023/06/23 09:06:47;;;;;;;20.25;16.83;;;19.70;91.90;;;;;;4974012;28;20230;-87
2023/06/23 09:09:13;;;;;;;19.90;17.15;;;19.80;91.90;;;;;;4974371;28;20249;-87
2023/06/23 09:11:39;;;;;;;17.90;16.00;;;19.80;91.70;;;;;;4973963;28;20278;-87
2023/06/23 09:14:07;;;;;;;21.20;17.90;;;19.80;91.60;;;;;;4973841;28;20199;-87
2023/06/23 09:16:33;;;;;;;18.85;16.73;;;19.90;91.60;;;;;;4973838;28;20179;-87
2023/06/23 09:19:02;;;;;;;19.23;16.33;;;20.00;91.50;;;;;;4973830;28;20595;-87
2023/06/23 09:21:28;;;;;;;17.80;15.85;;;20.00;91.30;;;;;;4973896;28;20752;-87
2023/06/23 09:24:07;;;;;;;17.65;15.95;;;19.90;90.90;;;;;;4973784;28;20205;-87
2023/06/23 09:26:48;;;;;;;18.00;16.38;;;20.00;90.70;;;;;;4973643;28;20174;-87
2023/06/23 09:29:15;;;;;;;17.63;15.65;;;20.00;90.10;;;;;;4975204;28;20189;-87
2023/06/23 09:31:41;;;;;;;18.98;16.85;;;20.00;89.30;;;;;;4975027;28;20226;-87
2023/06/23 09:34:07;;;;;;;18.15;16.20;;;20.10;89.10;;;;;;4973831;28;20205;-87
2023/06/23 09:36:37;;;;;;;16.65;14.90;;;20.10;89.10;;;;;;4974344;28;20175;-87
2023/06/23 09:39:03;;;;;;;16.63;14.98;;;20.10;88.70;;;;;;4973468;28;20206;-87
2023/06/23 09:41:33;;;;;;;16.60;15.05;;;20.20;88.70;;;;;;4973480;28;20226;-87
2023/06/23 09:43:59;;;;;;;17.13;15.43;;;20.30;88.60;;;;;;4974629;28;20205;-87
2023/06/23 09:46:27;;;;;;;18.10;15.93;;;20.20;88.00;;;;;;4974582;28;20178;-87
2023/06/23 09:48:53;;;;;;;17.38;15.63;;;20.40;88.30;;;;;;4974582;28;20198;-87
2023/06/23 09:51:20;;;;;;;16.58;14.93;;;20.40;88.00;;;;;;4973392;28;20553;-87
2023/06/23 09:53:46;;;;;;;16.17;14.85;;;20.40;87.90;;;;;;4973138;28;20213;-88
2023/06/23 09:56:18;;;;;;;16.85;15.40;;;20.40;87.80;;;;;;4974514;28;20214;-87
2023/06/23 09:58:45;;;;;;;17.08;15.45;;;20.50;87.50;;;;;;4972488;28;20184;-87
2023/06/23 10:01:13;;;;;;;16.95;15.15;;;20.50;86.30;;;;;;4974438;28;20190;-87
2023/06/23 10:03:52;;;;;;;16.50;14.95;;;20.50;86.80;;;;;;4973177;28;20700;-87
2023/06/23 10:06:32;;;;;;;17.98;16.25;;;20.60;87.40;;;;;;4974722;28;20627;-87
2023/06/23 10:08:59;;;;;;;15.68;14.40;;;20.70;86.20;;;;;;4973964;28;20249;-87
2023/06/23 10:11:38;;;;;;;16.02;14.55;;;20.70;86.30;;;;;;4973092;28;20175;-87
2023/06/23 10:14:07;;;;;;;15.82;14.38;;;20.70;86.40;;;;;;4973075;28;20206;-87
2023/06/23 10:16:34;;;;;;;16.45;14.80;;;20.80;86.50;;;;;;4974489;28;20218;-87
2023/06/23 10:19:00;;;;;;;15.80;14.25;;;20.70;86.20;;;;;;4973284;28;20187;-87
2023/06/23 10:21:26;;;;;;;17.20;15.48;;;20.80;86.20;;;;;;4973097;28;20185;-87
2023/06/23 10:23:57;;;;;;;22.42;15.50;;;20.70;85.80;;;;;;4973035;28;20257;-87
2023/06/23 10:26:23;;;;;;;17.20;15.43;;;20.80;85.90;;;;;;4973937;28;20214;-87
2023/06/23 10:28:50;;;;;;;17.85;16.15;;;20.80;85.60;;;;;;4974226;28;20298;-87
2023/06/23 10:31:17;;;;;;;26.35;16.27;;;20.80;84.80;;;;;;4972939;28;20175;-87
2023/06/23 10:33:43;;;;;;;17.67;16.08;;;20.90;85.10;;;;;;4972918;28;20623;-87
2023/06/23 10:36:14;;;;;;;18.67;16.73;;;20.90;84.50;;;;;;4974165;28;20175;-87
2023/06/23 10:38:43;;;;;;;18.00;15.63;;;20.70;84.00;;;;;;4972973;28;20178;-87
2023/06/23 10:41:10;;;;;;;18.70;16.08;;;20.70;84.80;;;;;;4973245;28;20187;-87
2023/06/23 10:43:39;;;;;;;17.98;15.38;;;20.70;84.60;;;;;;4972832;28;20198;-87
2023/06/23 10:46:05;;;;;;;19.52;17.60;;;20.70;84.20;;;;;;4973423;28;20186;-87
2023/06/23 10:48:31;;;;;;;17.92;16.02;;;20.70;84.30;;;;;;4972790;28;20213;-87
2023/06/23 10:50:58;;;;;;;16.95;15.25;;;20.70;83.80;;;;;;4972888;28;20270;-87
2023/06/23 10:53:32;;;;;;;21.23;16.05;;;20.70;84.00;;;;;;4972523;28;20220;-87
2023/06/23 10:55:58;;;;;;;17.20;15.35;;;20.80;84.30;;;;;;4974034;28;20163;-87
2023/06/23 10:58:24;;;;;;;17.13;15.55;;;20.80;84.00;;;;;;4972760;28;20202;-87
2023/06/23 11:00:53;;;;;;;16.63;14.88;;;20.80;83.80;;;;;;4972777;28;20237;-87
2023/06/23 11:03:26;;;;;;;19.92;15.25;;;21.00;83.20;;;;;;4972865;28;20226;-87
2023/06/23 11:05:54;;;;;;;17.50;15.77;;;21.00;82.90;;;;;;4973892;28;20205;-87
2023/06/23 11:08:27;;;;;;;16.73;15.00;;;21.10;82.60;;;;;;4972597;28;20701;-87
2023/06/23 11:11:02;;;;;;;16.52;15.02;;;21.10;82.50;;;;;;4975785;28;20630;-87
2023/06/23 11:13:44;;;;;;;16.38;14.77;;;21.10;82.70;;;;;;4977316;28;20191;-87
2023/06/23 11:16:14;;;;;;;17.63;15.02;;;21.10;82.40;;;;;;4976057;28;20179;-87
2023/06/23 11:18:54;;;;;;;17.58;15.88;;;21.10;82.90;;;;;;4976075;28;20221;-87
2023/06/23 11:21:38;;;;;;;16.55;14.93;;;21.10;81.90;;;;;;4977307;28;20217;-87
2023/06/23 11:24:12;;;;;;;17.85;15.60;;;21.10;82.00;;;;;;4977077;28;20284;-87
2023/06/23 11:26:51;;;;;;;16.48;14.98;;;21.20;82.30;;;;;;4975951;28;20554;-87
2023/06/23 11:29:21;;;;;;;27.48;16.70;;;21.30;81.90;;;;;;4977146;28;20170;-87
2023/06/23 11:32:09;;;;;;;16.70;15.23;;;21.20;80.90;;;;;;4976990;28;20193;-87
2023/06/23 11:34:54;;;;;;;17.60;15.77;;;21.30;81.60;;;;;;4975685;28;20185;-87
2023/06/23 11:37:21;;;;;;;17.88;16.02;;;21.30;80.70;;;;;;4977049;28;20174;-87
2023/06/23 11:39:48;;;;;;;17.45;15.80;;;21.30;80.70;;;;;;4975883;28;20175;-87
2023/06/23 11:42:13;;;;;;;16.25;14.80;;;21.40;81.10;;;;;;4977103;28;20187;-87
2023/06/23 11:44:39;;;;;;;17.10;15.60;;;21.60;81.10;;;;;;4977176;28;20201;-87
2023/06/23 11:47:04;;;;;;;17.25;15.55;;;21.70;79.90;;;;;;4975667;28;20708;-87
2023/06/23 11:49:31;;;;;;;17.10;15.52;;;21.70;79.00;;;;;;4977177;28;20310;-87
2023/06/23 11:52:04;;;;;;;16.58;14.90;;;21.80;78.80;;;;;;4975825;28;20206;-87
2023/06/23 11:54:32;;;;;;;16.58;14.98;;;21.90;77.10;;;;;;4975512;28;20191;-87
2023/06/23 11:57:00;;;;;;;17.80;16.10;;;22.00;77.70;;;;;;4976595;28;20526;-87
2023/06/23 11:59:25;;;;;;;18.17;16.67;;;22.10;77.50;;;;;;4976566;28;20167;-87
2023/06/23 12:01:51;;;;;;;19.77;17.90;;;22.20;76.90;;;;;;4976834;28;20542;-87
2023/06/23 12:04:21;;;;;;;20.70;18.70;;;22.20;77.00;;;;;;4975285;28;20209;-87
2023/06/23 12:06:51;;;;;;;19.23;17.00;;;21.90;75.30;;;;;;4975132;28;20262;-87
2023/06/23 12:09:17;;;;;;;19.88;15.70;;;22.10;76.80;;;;;;4976608;28;20174;-87
2023/06/23 12:11:42;;;;;;;17.08;15.60;;;22.30;76.20;;;;;;4975102;28;20234;-87
2023/06/23 12:14:08;;;;;;;18.30;15.20;;;22.40;76.20;;;;;;4976143;28;20199;-87
2023/06/23 12:16:36;;;;;;;17.63;16.13;;;22.50;74.30;;;;;;4959029;28;20658;-87
2023/06/23 12:19:02;;;;;;;18.02;16.52;;;22.50;73.80;;;;;;4976244;28;20174;-87
2023/06/23 12:21:28;;;;;;;20.27;18.02;;;22.40;73.70;;;;;;4974102;28;20277;-87
2023/06/23 12:23:56;;;;;;;18.48;16.77;;;22.30;72.90;;;;;;4974752;28;20587;-87
2023/06/23 12:26:21;;;;;;;18.20;15.95;;;22.20;72.90;;;;;;4974887;28;20209;-87
2023/06/23 12:28:48;;;;;;;16.98;15.50;;;22.30;73.80;;;;;;4975126;28;20237;-87
2023/06/23 12:31:26;;;;;;;16.77;15.48;;;22.50;72.90;;;;;;4975850;28;20198;-87
2023/06/23 12:33:52;;;;;;;16.67;15.45;;;22.50;72.30;;;;;;4975941;28;20194;-86
2023/06/23 12:36:17;;;;;;;17.80;16.17;;;22.50;71.10;;;;;;4974622;28;20181;-87
2023/06/23 12:38:44;;;;;;;18.17;16.60;;;22.50;70.10;;;;;;4975788;28;20175;-87